Terminal Aerodrome Forecast
Issued by NWS Spokane, WA

Home | Current Version | Previous Version | Text Only | Print | Product List | Glossary On
Versions: 1 2 3 4 5 6 7 8 9 10 11 12 13 14 15 16 17 18 19 20 21 22 23 24 25
000
FTUS46 KOTX 061734
TAFLWS
TAF
KLWS 061734Z 0618/0718 VRB03KT P6SM BKN100
     FM061900 30008KT P6SM SCT100
     FM070300 21004KT P6SM SCT070 BKN100 OVC120
     FM070900 15003KT P6SM VCSH BKN070 OVC090
     FM071300 VRB03KT P6SM SCT070=

USA.gov is the U.S. government's official web portal to all federal, state and local government web resources and services.